Trat Airport
VTBO : now visible

Airfield :











YOU CAN JOIN US ON...

 
LOGIN :

Register | Disclaimer

   EN    FR    IT 

 









Legend :    VFR   Marginal VFR   IFR   Intensive IFR   Very Intensive IFR
Visi :
Ceiling :
>= 8 km
>= 3000ft
5 to 8 km
1000 to 3000 ft
1500m to 5 km
500 to 1000 ft
800 to 1500m
200 to 500 ft
< 800m
< 200 ft
Symbols :   Thunderstorms  Fog  Heavy snow  Heavy precipitations  Wind > 20 kt






- Airport Elevation : 105 ft


VTBO - Trat

CURRENT METAR :
  • 020500Z 22010KT 7000 SCT020 31/25 Q1013

EXPIRED METARs :
  • 020400Z 23004KT 6000 SCT020 31/25 Q1013
  • 020300Z 00000KT 6000 FEW018TCU SCT020 31/25 Q1014
  • 020200Z 12003KT 5000 HZ FEW020 30/26 Q1014
  • 020100Z 07002KT 4000 BR FEW020 27/25 Q1013

TAF TAF VTBO
Valid from the 02 at 00:00 until the 03 at 00:00 UTC


012300Z 0200/0224 00000KT 3000 BR FEW020 SCT080
BECMG 0201/0203 09005KT 9000 NSW
BECMG 0204/0206 22008KT
TEMPO 0208/0211 VRB20KT 4000 TSRA FEW018CB SCT030
VTBB FIR / Asia



MET'MAP, your aeronautical weather chart ! - Copyright ORBIFLY December 2007 - Disclaimer

ORBIFLY MET'MAP TEAM :

Programming & Development : Alexandra Zaïnal
Original concept : Baudouin d'Aumeries
Technical & hardware support : Manuel Goepfert
Assistance : Marc-Olivier Méhu




SOURCES & CREDITS :

   NOAA       Earth
Advisory